aviador You're here:

KLBX Decoded Metar

ANGLETON in TX, USA
Report Time2017-05-23 19:53:00
UTC Time2017-05-23 20:26:13
Flight Rules vfr VFR
WindCalm
Visibility9999 m
Phenomena:N/A
Clouds:N/A
Expected CloudBase > 4,000 ft AGL from Temp-Dew spread
CeilingNone
Temp29°C (ISA +14)
Dew Point19°C (55% RH)
Heat Index30.3°C
QNH1008 hPa
Density Alt2,090 ft
Elevation20 ft
Report Wrong Elevation
Raw Report
KLBX 231953Z AUTO 00000KT 10SM CLR 29/19 A2978 RMK AO2 SLP085
T02940194=

Extra information for KLBX:More info

Metar Taf Metar & Taf Last 4 Metars F.Rules Stats Wind Profile Meteogram Temp Stats Airport Information Weather charts Add Link Nearby VenuesMetar ALERT Operation Metar Decoded Social comments

AIRNAV info for KLBX